Time;durP1;ratioP1;P1;durP2;ratioP2;P2;SDS_P1;SDS_P2;PMS_P1;PMS_P2;Temp;Humidity;BMP_temperature;BMP_pressure;BME280_temperature;BME280_humidity;BME280_pressure;Samples;Min_cycle;Max_cycle;Signal;HPM_P1;HPM_P2
2022/09/03 00:01:41;;;;;;;4.62;2.22;;;;;;;10.70;68.17;98786.16;1636075;87;28127;-63
2022/09/03 00:04:16;;;;;;;3.25;2.10;;;;;;;10.73;68.09;98789.64;1636194;87;25910;-62
2022/09/03 00:06:50;;;;;;;3.50;1.90;;;;;;;10.73;68.17;98799.23;1635103;87;25509;-62
2022/09/03 00:09:34;;;;;;;3.55;2.27;;;;;;;10.71;68.33;98787.77;1635066;87;26731;-63
2022/09/03 00:12:11;;;;;;;5.85;2.17;;;;;;;10.69;68.18;98787.28;1635410;87;25489;-63
2022/09/03 00:14:48;;;;;;;3.40;2.10;;;;;;;10.67;68.10;98789.52;1635989;86;27684;-63
2022/09/03 00:17:23;;;;;;;3.02;2.20;;;;;;;10.63;68.36;98787.16;1636405;87;25442;-63
2022/09/03 00:20:03;;;;;;;5.10;2.35;;;;;;;10.59;68.21;98789.70;1635232;87;25485;-63
2022/09/03 00:22:35;;;;;;;4.33;2.45;;;;;;;10.57;68.50;98782.37;1635366;87;25856;-63
2022/09/03 00:25:04;;;;;;;6.15;2.55;;;;;;;10.50;68.49;98785.52;1635684;87;25660;-62
2022/09/03 00:27:36;;;;;;;4.25;2.60;;;;;;;10.45;69.21;98786.18;1636401;87;27462;-63
2022/09/03 00:30:10;;;;;;;5.20;2.45;;;;;;;10.39;69.63;98787.66;1636115;87;25740;-63
2022/09/03 00:33:01;;;;;;;5.33;2.58;;;;;;;10.32;69.65;98787.28;1636261;87;25643;-61
2022/09/03 00:35:42;;;;;;;3.60;2.58;;;;;;;10.28;69.79;98780.81;1636095;87;25793;-62
2022/09/03 00:38:09;;;;;;;3.67;2.72;;;;;;;10.22;70.29;98777.35;1636708;87;25688;-62
2022/09/03 00:40:56;;;;;;;7.85;2.25;;;;;;;10.17;70.38;98774.17;1635900;87;27481;-63
2022/09/03 00:43:36;;;;;;;5.00;2.80;;;;;;;10.11;70.22;98774.06;1635886;87;27259;-63
2022/09/03 00:46:26;;;;;;;4.17;2.70;;;;;;;10.08;70.38;98767.01;1636154;87;25495;-63
2022/09/03 00:49:13;;;;;;;7.87;2.75;;;;;;;10.05;70.50;98769.81;1636446;87;26272;-63
2022/09/03 00:52:20;;;;;;;5.58;2.60;;;;;;;10.04;70.45;98769.54;1636293;87;25659;-62
2022/09/03 00:55:10;;;;;;;4.90;2.30;;;;;;;10.04;70.22;98766.25;1636140;87;27421;-61
2022/09/03 00:58:25;;;;;;;2.55;1.82;;;;;;;10.05;70.08;98767.07;1631117;87;25643;-63
2022/09/03 01:00:52;;;;;;;2.98;2.20;;;;;;;10.04;70.19;98766.80;1635978;87;25679;-63
2022/09/03 01:04:16;;;;;;;3.90;2.30;;;;;;;10.06;69.79;98764.58;1635917;87;25803;-62
2022/09/03 01:07:23;;;;;;;4.40;1.95;;;;;;;10.06;70.11;98756.91;1636253;87;25463;-63
2022/09/03 01:10:13;;;;;;;3.22;2.00;;;;;;;10.02;69.89;98760.84;1636036;87;27491;-63
2022/09/03 01:12:57;;;;;;;3.90;2.10;;;;;;;10.00;69.75;98758.96;1634073;87;26078;-63
2022/09/03 01:16:07;;;;;;;3.92;2.20;;;;;;;9.98;70.09;98763.92;1633107;87;25725;-62
2022/09/03 01:18:50;;;;;;;5.22;2.37;;;;;;;9.96;69.87;98762.86;1629606;88;25848;-63
2022/09/03 01:21:51;;;;;;;3.45;2.08;;;;;;;9.96;70.17;98766.17;1629405;88;25691;-62
2022/09/03 01:24:28;;;;;;;3.12;1.90;;;;;;;10.00;69.52;98758.41;1628977;88;28411;-62
2022/09/03 01:27:04;;;;;;;2.83;1.60;;;;;;;10.09;69.46;98761.22;1602497;89;25739;-63
2022/09/03 01:29:48;;;;;;;4.20;2.08;;;;;;;10.14;69.72;98768.52;1602665;89;25672;-64
2022/09/03 01:32:26;;;;;;;6.33;2.35;;;;;;;10.15;69.13;98766.84;1603084;88;26665;-62
2022/09/03 01:35:03;;;;;;;3.98;2.22;;;;;;;10.17;68.88;98769.27;1602894;88;25777;-61
2022/09/03 01:38:07;;;;;;;4.78;2.45;;;;;;;10.22;68.86;98778.72;1601992;89;27480;-61
2022/09/03 01:40:46;;;;;;;3.22;2.08;;;;;;;10.24;68.78;98777.86;1602657;89;25728;-62
2022/09/03 01:43:50;;;;;;;3.62;1.90;;;;;;;10.22;68.99;98774.61;1603032;89;25704;-61
2022/09/03 01:46:23;;;;;;;3.37;2.00;;;;;;;10.21;68.80;98781.77;1602908;89;25677;-62
2022/09/03 01:49:03;;;;;;;4.25;2.10;;;;;;;10.18;68.98;98774.98;1603281;89;25758;-62
2022/09/03 01:51:31;;;;;;;3.45;1.90;;;;;;;10.17;69.12;98776.12;1602976;89;28392;-63
2022/09/03 01:54:27;;;;;;;3.25;1.98;;;;;;;10.13;69.16;98773.17;1602859;89;25517;-63
2022/09/03 01:57:40;;;;;;;3.35;1.95;;;;;;;10.14;69.02;98772.05;1602663;89;25538;-63
2022/09/03 02:00:19;;;;;;;4.65;1.65;;;;;;;10.12;69.12;98772.93;1603277;89;25821;-63
2022/09/03 02:02:48;;;;;;;3.92;1.70;;;;;;;10.09;69.17;98779.02;1602961;88;25613;-63
2022/09/03 02:05:23;;;;;;;2.98;1.90;;;;;;;10.12;69.08;98777.59;1626965;88;27447;-63
2022/09/03 02:08:00;;;;;;;2.50;1.80;;;;;;;10.13;69.16;98781.39;1629019;88;25673;-63
2022/09/03 02:10:34;;;;;;;3.80;1.85;;;;;;;10.12;69.18;98779.78;1629463;88;25595;-62
2022/09/03 02:13:22;;;;;;;4.62;1.52;;;;;;;10.17;69.09;98780.22;1629639;87;25684;-63
2022/09/03 02:15:51;;;;;;;5.90;2.37;;;;;;;10.19;68.96;98783.45;1602279;89;25755;-62
2022/09/03 02:18:23;;;;;;;3.20;1.67;;;;;;;10.20;68.97;98782.89;1609665;89;27431;-62
2022/09/03 02:20:52;;;;;;;4.33;1.98;;;;;;;10.19;69.14;98782.08;1609625;89;25806;-62
2022/09/03 02:23:18;;;;;;;5.30;2.15;;;;;;;10.18;68.98;98790.05;1609724;89;25700;-63
2022/09/03 02:25:52;;;;;;;5.30;2.00;;;;;;;10.17;69.01;98787.86;1609407;89;25826;-63
2022/09/03 02:28:18;;;;;;;3.70;2.10;;;;;;;10.12;69.06;98782.52;1584220;89;25631;-63
2022/09/03 02:30:44;;;;;;;2.83;1.75;;;;;;;10.14;69.14;98783.58;1609608;89;28376;-62
2022/09/03 02:33:11;;;;;;;4.70;2.20;;;;;;;10.12;69.22;98785.80;1609358;89;25780;-63
2022/09/03 02:35:39;;;;;;;3.58;2.40;;;;;;;10.11;69.13;98788.30;1609848;89;25637;-63
2022/09/03 02:38:16;;;;;;;3.80;2.50;;;;;;;10.12;69.26;98784.44;1609829;89;25731;-63
2022/09/03 02:40:44;;;;;;;4.42;2.30;;;;;;;10.12;69.89;98794.84;1609678;89;25719;-63
2022/09/03 02:43:19;;;;;;;3.42;2.27;;;;;;;10.06;69.47;98791.95;1609714;89;27420;-63
2022/09/03 02:45:49;;;;;;;3.02;2.02;;;;;;;10.05;69.79;98795.82;1609280;87;26243;-63
2022/09/03 02:48:20;;;;;;;3.50;1.70;;;;;;;10.01;69.81;98794.80;1610111;89;25507;-63
2022/09/03 02:50:46;;;;;;;;;;;;;;;9.96;69.91;98793.55;1611866;89;25776;-63
2022/09/03 02:53:12;;;;;;;3.75;1.98;;;;;;;9.94;70.01;98791.67;1627914;87;25671;-63
2022/09/03 02:55:38;;;;;;;2.95;1.95;;;;;;;9.89;70.19;98793.41;1636337;87;28148;-62
2022/09/03 02:58:05;;;;;;;4.72;1.57;;;;;;;9.89;69.99;98793.41;1636275;87;25887;-63
2022/09/03 03:00:34;;;;;;;3.95;1.90;;;;;;;9.90;70.15;98794.19;1636161;87;25682;-62
2022/09/03 03:03:03;;;;;;;2.65;1.50;;;;;;;9.87;70.35;98786.05;1635991;87;25739;-63
2022/09/03 03:05:46;;;;;;;2.77;1.47;;;;;;;9.83;70.46;98785.59;1636313;87;25687;-62
2022/09/03 03:08:20;;;;;;;3.30;1.90;;;;;;;9.78;70.67;98782.40;1636111;87;29594;-63
2022/09/03 03:10:44;;;;;;;3.55;2.17;;;;;;;9.74;70.73;98777.30;1635536;87;25678;-62
2022/09/03 03:13:12;;;;;;;3.05;2.00;;;;;;;9.72;70.48;98777.59;1636381;87;25734;-63
2022/09/03 03:15:38;;;;;;;5.97;2.00;;;;;;;9.74;70.61;98777.30;1634214;87;25772;-63
2022/09/03 03:18:06;;;;;;;2.92;1.80;;;;;;;9.75;70.70;98780.27;1629552;88;25681;-63
2022/09/03 03:20:33;;;;;;;2.85;1.87;;;;;;;9.79;70.61;98784.04;1629203;88;27415;-63
2022/09/03 03:23:04;;;;;;;3.47;1.98;;;;;;;9.83;70.66;98781.48;1629379;88;25454;-63
2022/09/03 03:25:36;;;;;;;4.70;2.10;;;;;;;9.84;70.64;98781.19;1629245;88;25640;-63
2022/09/03 03:28:04;;;;;;;3.58;1.90;;;;;;;9.85;70.88;98780.63;1629446;88;25834;-63
2022/09/03 03:30:32;;;;;;;3.55;1.95;;;;;;;9.83;70.76;98782.31;1629507;88;25666;-63
2022/09/03 03:32:59;;;;;;;3.77;1.87;;;;;;;9.84;70.95;98778.45;1629565;87;27523;-63
2022/09/03 03:35:25;;;;;;;3.58;1.82;;;;;;;9.83;70.83;98775.47;1628812;88;25676;-63
2022/09/03 03:37:51;;;;;;;4.62;2.33;;;;;;;9.80;71.07;98778.81;1604599;89;25526;-62
2022/09/03 03:40:19;;;;;;;4.97;1.82;;;;;;;9.78;71.03;98776.92;1621752;88;25699;-63
2022/09/03 03:42:45;;;;;;;9.20;2.10;;;;;;;9.76;71.00;98773.70;1621650;88;25671;-63
2022/09/03 03:45:11;;;;;;;4.20;1.90;;;;;;;9.72;71.04;98774.86;1621669;88;27428;-63
2022/09/03 03:47:37;;;;;;;2.37;1.62;;;;;;;9.72;71.40;98773.49;1621264;88;25505;-63
2022/09/03 03:50:05;;;;;;;2.00;1.57;;;;;;;9.69;71.37;98768.63;1621446;88;25699;-63
2022/09/03 03:52:31;;;;;;;6.28;2.05;;;;;;;9.69;71.32;98770.00;1621656;88;25866;-63
2022/09/03 03:54:57;;;;;;;4.12;2.00;;;;;;;9.69;71.41;98771.91;1621988;88;25457;-63
2022/09/03 03:57:24;;;;;;;2.98;1.92;;;;;;;9.69;71.04;98770.55;1621758;88;27518;-62
2022/09/03 03:59:50;;;;;;;6.05;2.65;;;;;;;9.70;71.23;98777.08;1621699;88;25627;-64
2022/09/03 04:02:17;;;;;;;4.80;2.05;;;;;;;9.77;70.91;98782.98;1621780;88;25506;-63
2022/09/03 04:04:43;;;;;;;6.62;2.33;;;;;;;9.81;71.10;98785.89;1621896;88;25941;-63
2022/09/03 04:07:09;;;;;;;4.70;1.98;;;;;;;9.82;70.88;98793.56;1645155;87;25461;-63
2022/09/03 04:09:36;;;;;;;4.70;2.20;;;;;;;9.80;70.93;98792.50;1648069;87;27620;-63
2022/09/03 04:12:07;;;;;;;6.83;1.87;;;;;;;9.79;70.99;98794.99;1647655;87;26404;-63
2022/09/03 04:14:31;;;;;;;4.62;2.02;;;;;;;9.77;71.06;98795.84;1647230;87;25466;-63
2022/09/03 04:16:57;;;;;;;3.12;2.00;;;;;;;9.76;71.12;98796.39;1639701;87;26460;-63
2022/09/03 04:19:24;;;;;;;4.25;2.25;;;;;;;9.73;71.32;98797.58;1636315;87;25489;-61
2022/09/03 04:21:50;;;;;;;3.98;2.45;;;;;;;9.71;71.41;98802.53;1635971;87;27607;-63
2022/09/03 04:24:16;;;;;;;3.45;2.22;;;;;;;9.69;71.34;98800.09;1654916;85;26430;-63
2022/09/03 04:26:42;;;;;;;4.17;2.33;;;;;;;9.69;71.45;98795.17;1671953;85;25753;-62
2022/09/03 04:29:09;;;;;;;4.83;2.20;;;;;;;9.66;71.69;98794.69;1672180;85;25675;-63
2022/09/03 04:31:37;;;;;;;3.70;2.30;;;;;;;9.67;71.58;98790.00;1650347;84;25984;-62
2022/09/03 04:34:09;;;;;;;4.17;2.40;;;;;;;9.69;72.21;98800.65;1636030;87;27447;-63
2022/09/03 04:36:33;;;;;;;6.15;2.20;;;;;;;9.68;71.96;98802.59;1634463;87;25685;-63
2022/09/03 04:39:01;;;;;;;4.15;2.22;;;;;;;9.68;72.01;98809.43;1635973;87;25725;-63
2022/09/03 04:41:29;;;;;;;4.03;2.35;;;;;;;9.75;71.99;98807.64;1636142;87;26655;-63
2022/09/03 04:43:58;;;;;;;4.20;2.20;;;;;;;9.81;71.81;98807.00;1636183;87;25714;-63
2022/09/03 04:46:32;;;;;;;5.17;2.00;;;;;;;9.90;72.02;98807.33;1636334;87;27636;-62
2022/09/03 04:48:56;;;;;;;;;;;;;;;9.97;71.87;98814.33;1637824;87;25676;-63
2022/09/03 04:51:28;;;;;;;7.80;2.08;;;;;;;10.10;71.67;98813.49;1636115;87;25617;-62
2022/09/03 04:53:59;;;;;;;4.62;2.35;;;;;;;10.22;71.66;98812.95;1636052;87;25836;-63
2022/09/03 04:56:31;;;;;;;4.33;2.13;;;;;;;10.38;71.33;98811.25;1636561;87;25613;-63
2022/09/03 04:59:01;;;;;;;4.05;1.98;;;;;;;10.52;70.84;98817.55;1636209;87;27492;-62
2022/09/03 05:01:30;;;;;;;4.40;1.70;;;;;;;10.64;70.65;98814.80;1636071;87;25717;-63
2022/09/03 05:03:57;;;;;;;3.85;2.00;;;;;;;10.75;70.17;98810.71;1636169;87;25515;-63
2022/09/03 05:06:25;;;;;;;4.90;2.45;;;;;;;10.81;70.24;98807.83;1636144;87;25765;-62
2022/09/03 05:08:53;;;;;;;3.80;2.55;;;;;;;10.94;70.28;98815.17;1636188;87;25709;-64
2022/09/03 05:11:20;;;;;;;3.42;2.25;;;;;;;11.02;69.78;98813.61;1635953;87;27530;-63
2022/09/03 05:13:52;;;;;;;3.92;2.50;;;;;;;11.05;69.59;98811.62;1636357;87;25612;-63
2022/09/03 05:16:20;;;;;;;5.12;2.80;;;;;;;11.13;69.58;98808.68;1636132;86;25717;-63
2022/09/03 05:18:47;;;;;;;4.17;1.90;;;;;;;11.24;69.47;98811.42;1636268;87;25725;-63
2022/09/03 05:21:17;;;;;;;3.70;2.30;;;;;;;11.37;69.33;98817.14;1636030;87;25710;-63
2022/09/03 05:23:46;;;;;;;3.30;2.42;;;;;;;11.42;68.99;98809.57;1636268;87;27523;-63
2022/09/03 05:26:17;;;;;;;3.75;2.45;;;;;;;11.47;68.88;98810.55;1636124;87;25724;-63
2022/09/03 05:28:57;;;;;;;3.02;2.30;;;;;;;11.53;69.18;98818.34;1636071;87;25472;-63
2022/09/03 05:31:37;;;;;;;2.55;1.70;;;;;;;11.61;69.33;98813.20;1636231;87;26972;-62
2022/09/03 05:34:15;;;;;;;3.73;2.33;;;;;;;11.66;68.50;98817.19;1636300;87;25628;-63
2022/09/03 05:36:48;;;;;;;3.47;2.20;;;;;;;11.70;68.80;98810.48;1635986;87;27389;-63
2022/09/03 05:39:21;;;;;;;6.28;2.80;;;;;;;11.79;68.80;98812.14;1635738;87;25474;-63
2022/09/03 05:41:49;;;;;;;6.95;2.65;;;;;;;11.80;68.87;98816.50;1636202;87;25705;-63
2022/09/03 05:44:15;;;;;;;4.35;2.42;;;;;;;11.95;68.83;98818.57;1636234;87;25804;-63
2022/09/03 05:46:41;;;;;;;4.65;2.47;;;;;;;12.13;68.46;98821.38;1636306;87;25748;-64
2022/09/03 05:49:08;;;;;;;3.92;2.40;;;;;;;12.29;68.21;98812.09;1636176;87;28190;-63
2022/09/03 05:51:38;;;;;;;4.65;1.95;;;;;;;12.40;67.92;98811.22;1636356;87;25998;-63
2022/09/03 05:54:07;;;;;;;4.57;2.93;;;;;;;12.46;67.97;98819.55;1636162;87;25455;-63
2022/09/03 05:56:36;;;;;;;6.17;3.30;;;;;;;12.56;68.05;98815.69;1635835;87;25919;-63
2022/09/03 05:59:08;;;;;;;3.52;2.27;;;;;;;12.70;67.85;98811.41;1636279;87;25675;-64
2022/09/03 06:01:38;;;;;;;6.10;2.33;;;;;;;12.83;67.51;98815.66;1635926;87;25831;-64
2022/09/03 06:04:08;;;;;;;4.22;2.62;;;;;;;12.88;67.44;98805.88;1636341;87;25735;-64
2022/09/03 06:06:38;;;;;;;3.43;2.30;;;;;;;12.84;68.08;98814.55;1636333;87;25521;-63
2022/09/03 06:09:09;;;;;;;5.60;3.12;;;;;;;12.87;67.68;98807.02;1636254;87;25704;-64
2022/09/03 06:11:36;;;;;;;;;;;;;;;12.82;67.95;98805.24;1638559;87;25630;-64
2022/09/03 06:14:07;;;;;;;5.65;2.58;;;;;;;12.91;68.04;98802.48;1635928;87;27404;-64
2022/09/03 06:16:40;;;;;;;4.22;2.72;;;;;;;13.13;67.64;98808.33;1636198;87;25761;-63
2022/09/03 06:19:09;;;;;;;5.25;2.90;;;;;;;13.28;66.81;98806.20;1636193;87;25611;-65
2022/09/03 06:21:41;;;;;;;3.45;2.52;;;;;;;13.34;66.91;98806.27;1636089;87;25752;-63
2022/09/03 06:24:18;;;;;;;5.72;2.80;;;;;;;13.41;66.31;98802.43;1636306;87;25723;-64
2022/09/03 06:26:45;;;;;;;7.25;3.17;;;;;;;13.46;66.58;98804.75;1636379;87;27478;-64
2022/09/03 06:29:12;;;;;;;4.87;2.90;;;;;;;13.55;66.47;98806.94;1635921;87;26459;-64
2022/09/03 06:31:39;;;;;;;5.28;3.08;;;;;;;13.67;66.41;98804.86;1636275;87;25484;-64
2022/09/03 06:34:07;;;;;;;5.42;2.50;;;;;;;13.67;66.91;98807.61;1636201;87;25685;-64
2022/09/03 06:36:33;;;;;;;5.87;2.45;;;;;;;13.63;67.12;98808.05;1636249;87;25764;-64
2022/09/03 06:39:00;;;;;;;3.60;2.92;;;;;;;13.67;67.34;98808.98;1636038;87;27532;-64
2022/09/03 06:41:31;;;;;;;4.10;2.70;;;;;;;13.79;67.59;98817.36;1635924;87;25467;-65
2022/09/03 06:44:01;;;;;;;;;;;;;;;13.86;67.24;98822.92;1638714;87;25734;-65
2022/09/03 06:46:27;;;;;;;3.50;2.40;;;;;;;13.82;67.56;98828.87;1636011;87;25602;-64
2022/09/03 06:48:54;;;;;;;4.62;2.83;;;;;;;13.85;67.59;98826.27;1636313;87;25682;-64
2022/09/03 06:51:24;;;;;;;5.12;2.85;;;;;;;13.97;67.48;98828.31;1636334;87;27608;-64
2022/09/03 06:53:56;;;;;;;4.95;2.65;;;;;;;14.07;67.69;98824.94;1636209;87;29962;-63
2022/09/03 06:56:27;;;;;;;6.33;3.10;;;;;;;14.17;67.72;98831.44;1635901;87;25685;-63
2022/09/03 06:58:56;;;;;;;6.72;3.00;;;;;;;14.20;67.85;98820.30;1636319;87;25738;-62
2022/09/03 07:01:27;;;;;;;6.03;2.70;;;;;;;14.24;67.98;98820.68;1636374;87;25666;-60
2022/09/03 07:03:56;;;;;;;5.03;2.63;;;;;;;14.39;67.84;98824.79;1636428;87;28404;-62
2022/09/03 07:06:26;;;;;;;5.40;2.72;;;;;;;14.49;67.55;98818.08;1636384;87;25483;-64
2022/09/03 07:08:53;;;;;;;4.42;2.87;;;;;;;14.49;67.55;98818.08;1636260;87;25540;-63
2022/09/03 07:11:26;;;;;;;3.85;2.80;;;;;;;14.54;67.47;98812.34;1636059;87;25841;-59
2022/09/03 07:13:54;;;;;;;6.03;2.95;;;;;;;14.70;67.80;98805.41;1636131;87;25674;-64
2022/09/03 07:16:34;;;;;;;7.33;3.30;;;;;;;14.87;67.42;98809.99;1636132;87;27487;-59
2022/09/03 07:19:02;;;;;;;3.58;2.42;;;;;;;15.11;67.14;98812.03;1634593;87;25948;-61
2022/09/03 07:21:32;;;;;;;5.15;2.37;;;;;;;15.26;66.31;98802.28;1635992;87;25520;-64
2022/09/03 07:23:59;;;;;;;4.62;2.77;;;;;;;15.40;66.37;98812.23;1636433;87;25523;-59
2022/09/03 07:26:32;;;;;;;8.10;2.47;;;;;;;15.58;66.37;98823.88;1636567;87;25467;-58
2022/09/03 07:28:59;;;;;;;6.25;2.70;;;;;;;15.63;65.36;98814.56;1636717;87;28222;-61
2022/09/03 07:31:37;;;;;;;3.33;2.67;;;;;;;15.74;64.73;98827.31;1636241;87;25467;-58
2022/09/03 07:34:06;;;;;;;5.08;2.65;;;;;;;15.97;65.87;98837.38;1635963;87;25675;-59
2022/09/03 07:36:42;;;;;;;5.28;2.00;;;;;;;16.18;64.93;98837.25;1636411;87;26459;-59
2022/09/03 07:39:11;;;;;;;3.12;2.02;;;;;;;16.31;63.55;98837.23;1636228;87;25451;-58
2022/09/03 07:41:43;;;;;;;5.92;1.95;;;;;;;16.42;63.19;98837.00;1636045;87;27390;-59
2022/09/03 07:44:08;;;;;;;3.90;2.10;;;;;;;16.30;62.84;98835.63;1635595;87;25772;-61
2022/09/03 07:46:37;;;;;;;3.83;2.22;;;;;;;16.19;63.47;98835.30;1636049;87;25613;-62
2022/09/03 07:49:05;;;;;;;4.35;1.72;;;;;;;16.20;62.57;98845.79;1636274;87;25748;-58
2022/09/03 07:51:37;;;;;;;3.20;1.70;;;;;;;16.21;62.67;98826.66;1636271;87;25642;-58
2022/09/03 07:54:09;;;;;;;4.03;1.40;;;;;;;16.33;62.07;98830.79;1636261;87;27535;-58
2022/09/03 07:56:37;;;;;;;1.60;1.20;;;;;;;16.44;62.07;98835.27;1635989;87;25629;-59
2022/09/03 07:59:05;;;;;;;1.67;1.17;;;;;;;16.56;61.01;98838.58;1636708;87;25511;-58
2022/09/03 08:01:33;;;;;;;2.00;1.40;;;;;;;16.74;60.63;98845.20;1636141;87;25691;-58
2022/09/03 08:04:03;;;;;;;2.47;1.07;;;;;;;16.96;60.11;98848.59;1636331;87;25700;-63
2022/09/03 08:06:33;;;;;;;0.80;0.80;;;;;;;17.10;59.25;98849.00;1636514;87;28306;-59
2022/09/03 08:09:03;;;;;;;1.40;1.07;;;;;;;17.29;58.91;98843.37;1636216;87;25555;-60
2022/09/03 08:11:31;;;;;;;1.12;1.00;;;;;;;17.60;58.80;98832.69;1635962;87;25745;-59
2022/09/03 08:14:01;;;;;;;1.40;1.07;;;;;;;17.80;57.55;98832.20;1636057;87;25926;-61
2022/09/03 08:16:34;;;;;;;1.23;0.90;;;;;;;17.93;57.22;98835.09;1636224;87;25511;-59
2022/09/03 08:19:01;;;;;;;1.20;0.80;;;;;;;17.92;56.99;98834.87;1635362;87;27402;-59
2022/09/03 08:21:28;;;;;;;1.65;1.22;;;;;;;18.03;56.18;98835.14;1635862;87;25849;-59
2022/09/03 08:24:01;;;;;;;3.22;1.20;;;;;;;18.03;56.45;98840.69;1635955;87;25573;-59
2022/09/03 08:26:25;;;;;;;1.25;1.00;;;;;;;18.27;56.38;98842.22;1634426;87;25613;-59
2022/09/03 08:28:52;;;;;;;1.67;1.20;;;;;;;18.33;55.98;98826.12;1635922;87;25489;-63
2022/09/03 08:31:22;;;;;;;1.50;1.32;;;;;;;18.31;55.51;98832.02;1636151;87;28282;-60
2022/09/03 08:33:51;;;;;;;2.17;1.35;;;;;;;18.21;56.23;98839.50;1636057;87;25529;-59
2022/09/03 08:36:21;;;;;;;1.60;1.22;;;;;;;18.13;56.87;98835.78;1636290;87;25649;-60
2022/09/03 08:38:51;;;;;;;;;;;;;;;18.29;56.71;98835.73;1638681;87;25657;-58
2022/09/03 08:41:28;;;;;;;1.32;0.70;;;;;;;18.16;56.33;98833.64;1635973;87;25692;-59
2022/09/03 08:44:27;;;;;;;1.65;1.12;;;;;;;17.73;56.76;98823.11;1635722;87;26855;-63
2022/09/03 08:47:08;;;;;;;1.10;0.90;;;;;;;17.47;57.75;98829.99;1635964;87;25645;-63
2022/09/03 08:49:57;;;;;;;1.95;1.15;;;;;;;17.12;57.95;98850.84;1636379;87;25479;-62
2022/09/03 08:52:36;;;;;;;1.60;0.98;;;;;;;16.84;59.09;98835.01;1636216;87;26450;-61
2022/09/03 08:55:28;;;;;;;1.37;0.82;;;;;;;16.97;59.41;98834.39;1628235;87;25609;-59
2022/09/03 08:58:05;;;;;;;2.37;0.95;;;;;;;17.07;58.85;98842.78;1636155;87;27558;-63
2022/09/03 09:01:06;;;;;;;1.35;0.80;;;;;;;16.93;59.19;98850.89;1635851;87;25673;-61
2022/09/03 09:03:56;;;;;;;1.50;1.30;;;;;;;16.79;59.78;98849.11;1636375;87;25675;-59
2022/09/03 09:06:45;;;;;;;1.83;1.50;;;;;;;16.78;60.24;98848.89;1635566;87;26568;-64
2022/09/03 09:09:47;;;;;;;1.75;1.20;;;;;;;16.91;60.11;98841.34;1635909;87;25701;-62
2022/09/03 09:12:46;;;;;;;1.17;0.90;;;;;;;16.92;60.48;98836.84;1635919;87;26765;-63
2022/09/03 09:15:49;;;;;;;1.82;1.00;;;;;;;16.95;59.79;98824.84;1636121;87;25660;-60
2022/09/03 09:18:48;;;;;;;2.62;1.40;;;;;;;16.90;59.75;98826.69;1634991;87;25744;-62
2022/09/03 09:21:19;;;;;;;1.35;1.20;;;;;;;16.82;60.66;98835.95;1635940;87;26114;-58
2022/09/03 09:23:49;;;;;;;3.20;1.40;;;;;;;16.99;60.47;98826.55;1636020;87;25530;-58
2022/09/03 09:26:21;;;;;;;1.42;1.22;;;;;;;17.07;60.84;98831.71;1636447;87;27987;-59
2022/09/03 09:28:59;;;;;;;2.37;1.60;;;;;;;16.99;60.39;98832.09;1636076;87;25660;-58
2022/09/03 09:31:29;;;;;;;2.70;1.42;;;;;;;17.05;60.70;98838.17;1635931;87;25772;-62
2022/09/03 09:34:06;;;;;;;2.27;1.62;;;;;;;17.44;60.01;98822.39;1636540;87;25715;-58
2022/09/03 09:36:44;;;;;;;1.65;1.50;;;;;;;17.83;59.97;98825.94;1636329;87;25476;-59
2022/09/03 09:39:14;;;;;;;1.92;1.60;;;;;;;17.94;59.73;98828.38;1635878;87;27483;-58
2022/09/03 09:41:40;;;;;;;2.87;1.30;;;;;;;18.03;58.69;98828.20;1635946;87;25474;-59
2022/09/03 09:44:07;;;;;;;1.52;1.07;;;;;;;17.80;58.01;98837.74;1636367;87;25504;-59
2022/09/03 09:46:40;;;;;;;1.95;1.50;;;;;;;17.76;58.28;98827.16;1635857;87;25786;-58
2022/09/03 09:49:38;;;;;;;2.25;1.80;;;;;;;17.80;58.46;98825.27;1636047;87;25788;-58
2022/09/03 09:52:12;;;;;;;2.12;1.50;;;;;;;17.82;57.64;98828.50;1617445;87;27472;-59
2022/09/03 09:54:41;;;;;;;2.05;1.47;;;;;;;17.76;57.91;98845.95;1635416;87;25625;-59
2022/09/03 09:57:17;;;;;;;1.42;1.32;;;;;;;17.59;58.53;98843.55;1636179;87;25725;-59
2022/09/03 09:59:49;;;;;;;1.92;1.60;;;;;;;17.60;58.15;98851.52;1636029;87;25682;-61
2022/09/03 10:02:20;;;;;;;3.08;1.65;;;;;;;17.57;58.05;98845.30;1634694;87;25471;-58
2022/09/03 10:04:47;;;;;;;3.25;1.87;;;;;;;17.65;58.55;98840.75;1635958;87;27472;-59
2022/09/03 10:07:30;;;;;;;2.22;1.65;;;;;;;17.72;58.00;98835.37;1617982;87;27662;-62
2022/09/03 10:10:16;;;;;;;3.50;1.80;;;;;;;17.77;59.21;98825.41;1636038;87;25428;-58
2022/09/03 10:13:15;;;;;;;2.58;1.67;;;;;;;17.94;58.66;98826.20;1636116;87;25704;-58
2022/09/03 10:16:14;;;;;;;3.12;1.70;;;;;;;18.03;58.09;98834.33;1636255;87;25491;-61
2022/09/03 10:18:54;;;;;;;2.95;1.85;;;;;;;18.12;57.93;98830.81;1636011;86;27570;-58
2022/09/03 10:21:59;;;;;;;1.67;1.57;;;;;;;18.16;57.58;98830.88;1636210;87;25685;-58
2022/09/03 10:24:49;;;;;;;2.80;1.80;;;;;;;18.28;57.92;98826.59;1636016;87;25511;-60
2022/09/03 10:27:18;;;;;;;2.27;1.60;;;;;;;18.71;58.41;98825.13;1609039;89;27816;-59
2022/09/03 10:29:45;;;;;;;1.47;1.37;;;;;;;19.17;56.24;98826.64;1609521;89;25724;-62
2022/09/03 10:32:32;;;;;;;2.62;1.32;;;;;;;19.18;55.51;98828.85;1609645;89;27464;-61
2022/09/03 10:35:32;;;;;;;2.52;1.50;;;;;;;19.15;55.29;98815.12;1608956;89;25547;-58
2022/09/03 10:38:07;;;;;;;1.55;1.27;;;;;;;19.13;55.84;98823.01;1609590;89;25737;-60
2022/09/03 10:40:38;;;;;;;3.17;1.70;;;;;;;19.14;55.40;98808.55;1609652;89;25730;-61
2022/09/03 10:43:22;;;;;;;3.00;1.70;;;;;;;18.85;55.68;98814.30;1609772;89;25579;-62
2022/09/03 10:46:05;;;;;;;2.47;1.70;;;;;;;18.69;55.94;98816.56;1582677;90;27991;-61
2022/09/03 10:49:10;;;;;;;1.80;1.40;;;;;;;18.72;56.11;98814.23;1539435;93;26182;-61
2022/09/03 10:51:44;;;;;;;3.20;1.75;;;;;;;19.14;55.65;98816.88;1542908;93;25590;-61
2022/09/03 10:54:37;;;;;;;2.37;1.70;;;;;;;19.20;56.81;98818.77;1596365;89;25712;-61
2022/09/03 10:57:28;;;;;;;1.90;1.50;;;;;;;19.61;54.92;98807.97;1595816;89;25716;-61
2022/09/03 11:00:08;;;;;;;3.27;1.80;;;;;;;20.04;54.01;98807.08;1596260;89;27556;-62
2022/09/03 11:02:58;;;;;;;4.08;1.85;;;;;;;20.88;53.11;98809.55;1602411;88;25867;-62
2022/09/03 11:05:35;;;;;;;3.10;1.82;;;;;;;20.97;51.22;98805.91;1552877;92;25547;-61
2022/09/03 11:08:06;;;;;;;2.52;1.72;;;;;;;20.92;51.90;98800.08;1550903;92;25501;-60
2022/09/03 11:10:39;;;;;;;2.70;1.98;;;;;;;21.43;51.34;98803.97;1550288;92;25729;-61
2022/09/03 11:13:25;;;;;;;2.90;1.80;;;;;;;22.01;48.95;98807.83;1550874;92;25856;-61
2022/09/03 11:15:58;;;;;;;2.12;1.65;;;;;;;22.39;48.23;98793.11;1550635;92;25724;-58
2022/09/03 11:18:54;;;;;;;2.10;1.90;;;;;;;22.11;48.71;98801.55;1549897;92;25746;-62
2022/09/03 11:21:26;;;;;;;2.08;1.90;;;;;;;21.63;48.64;98795.38;1557603;92;25939;-63
2022/09/03 11:24:12;;;;;;;2.08;1.80;;;;;;;20.64;49.93;98794.34;1557640;92;25696;-58
2022/09/03 11:26:42;;;;;;;3.85;2.10;;;;;;;20.60;51.14;98803.83;1557216;92;25935;-62
2022/09/03 11:29:12;;;;;;;;;;;;;;;20.98;50.94;98797.75;1559635;92;25578;-62
2022/09/03 11:32:01;;;;;;;2.75;2.02;;;;;;;21.15;50.07;98793.55;1557291;92;25798;-60
2022/09/03 11:34:47;;;;;;;2.30;2.10;;;;;;;20.92;50.40;98802.05;1557167;92;25708;-62
2022/09/03 11:37:26;;;;;;;3.45;2.20;;;;;;;20.97;50.79;98787.80;1557357;92;25608;-62
2022/09/03 11:40:16;;;;;;;3.50;1.92;;;;;;;21.24;50.51;98793.23;1557416;92;27554;-62
2022/09/03 11:42:43;;;;;;;2.17;1.98;;;;;;;21.55;49.66;98788.93;1597938;88;25863;-62
2022/09/03 11:45:30;;;;;;;2.17;1.98;;;;;;;21.46;49.50;98786.47;1629253;88;25704;-61
2022/09/03 11:47:57;;;;;;;2.37;2.02;;;;;;;21.42;49.39;98780.08;1629397;88;25685;-63
2022/09/03 11:50:32;;;;;;;2.62;2.20;;;;;;;20.95;49.63;98772.05;1629064;88;25426;-61
2022/09/03 11:53:16;;;;;;;2.40;1.95;;;;;;;20.56;51.20;98770.40;1629223;88;28454;-62
2022/09/03 11:56:11;;;;;;;2.42;1.90;;;;;;;20.50;51.26;98767.16;1627818;88;25759;-62
2022/09/03 11:58:41;;;;;;;2.25;1.95;;;;;;;20.40;50.97;98779.74;1628741;88;25542;-63
2022/09/03 12:01:14;;;;;;;2.42;2.22;;;;;;;20.25;51.40;98782.12;1628889;88;25617;-63
2022/09/03 12:03:55;;;;;;;2.95;2.27;;;;;;;20.11;52.20;98776.57;1629338;88;25484;-63
2022/09/03 12:07:13;;;;;;;2.80;2.20;;;;;;;20.22;52.61;98782.87;1626451;88;27454;-60
2022/09/03 12:10:24;;;;;;;2.42;2.22;;;;;;;20.28;52.05;98778.00;1629072;88;25418;-63
2022/09/03 12:12:59;;;;;;;;;;;;;;;20.03;52.79;98784.01;1631600;88;25628;-63
2022/09/03 12:15:39;;;;;;;3.50;1.98;;;;;;;20.28;53.36;98773.83;1629128;87;25899;-62